Etusivu
METAR-TAF:

METAR-TAF

Lentoasemat :

Monastir, Tunisia

Leveyspiiri: 35-46N, Pituuspiiri: 010-45E, korkeus merenpinnasta: 2 m

Tämänhetkinen sää

Tämä raportti tehtiin 31 minuuttia sitten, kello 13.30 UTC
Tuuli 11 kn etelästä
Lämpötila 38°C
Kosteus 20%
Ilmanpaine 1011 hPa
Näkyvyys 10 km tai enemmän
ei pilviä alle 1500 m:ssä eikä cumulonimbus-pilviä

METAR: DTMB 151330Z 17011KT CAVOK 38/11 Q1011

Aika: 15:01 (14:01 UTC)

Sääennuste

Tämä raportti tehtiin 3 tuntia ja 1 minuuttia sitten, kello 11.00 UTC
Ennuste voimassa 15. päivästä klo 12 UTC - 16. päivään klo 12 UTC
Tuuli 14 kn etelästä
Näkyvyys 10 km tai enemmän
ei pilviä alle 1500 m:ssä eikä cumulonimbus-pilviä
Tulossa
15. päivästä klo 22 UTC - 15. päivään klo 24 UTC
Tuuli 2 kn eri suunnista
Tulossa
16. päivästä klo 02 UTC - 16. päivään klo 04 UTC
Tuuli 10 kn koillisesta

TAF: DTMB 151100Z 1512/1612 17014KT CAVOK BECMG 1522/1524 VRB02KT BECMG 1602/1604 05010KT

Säähavainnot ja -ennusteet yli 4000 lentoasemalta (METAR- ja TAF-raportit).

Käytössä olevat sääasemat on merkitty karttaan keltaisilla ja punaisilla pisteillä.

Aseta hiiri pisteen päälle nähdäksesi sääaseman nimen.

Klikkaa sitten nähdäksesi säähavainnot ja -ennusteet.

Kartan vaihtaminen: klikkaa mustalla rastilla varustettuja vihreitä pisteitä, niin voit zoomata sisään; viivalla varustettua vihreää pistettä, niin voit zoomata ulos tai vihreitä nuolia, niin pääset viereisille kartoille.


METAR-TAF: